createdAt,value
2017-09-10T00:00:39.808Z,5.12
2017-09-10T00:03:07.314Z,3.85
2017-09-10T00:05:34.867Z,4.90
2017-09-10T00:08:05.788Z,5.55
2017-09-10T00:10:35.968Z,4.82
2017-09-10T00:13:03.530Z,6.80
2017-09-10T00:15:31.781Z,4.90
2017-09-10T00:17:59.273Z,4.57
2017-09-10T00:20:27.681Z,5.10
2017-09-10T00:22:55.201Z,5.75
2017-09-10T00:25:22.696Z,5.40
2017-09-10T00:27:50.198Z,4.80
2017-09-10T00:30:17.714Z,4.60
2017-09-10T00:32:45.207Z,4.60
2017-09-10T00:35:12.685Z,4.75
2017-09-10T00:37:40.940Z,4.37
2017-09-10T00:40:08.440Z,4.72
2017-09-10T00:42:36.708Z,5.00
2017-09-10T00:45:04.990Z,4.40
2017-09-10T00:47:32.503Z,4.32
2017-09-10T00:49:59.981Z,5.30
2017-09-10T00:52:27.485Z,5.18
2017-09-10T00:54:54.989Z,4.85
2017-09-10T00:57:22.480Z,3.80
2017-09-10T00:59:50.849Z,4.78
2017-09-10T01:02:18.599Z,6.87
2017-09-10T01:04:46.141Z,5.03
2017-09-10T01:07:13.635Z,4.68
2017-09-10T01:09:41.126Z,5.32
2017-09-10T01:12:08.608Z,5.95
2017-09-10T01:14:36.096Z,4.45
2017-09-10T01:17:03.601Z,6.10
2017-09-10T01:19:31.097Z,4.40
2017-09-10T01:21:58.621Z,5.75
2017-09-10T01:24:26.103Z,4.60
2017-09-10T01:26:53.598Z,4.97
2017-09-10T01:29:21.852Z,4.22
2017-09-10T01:31:49.324Z,5.03
2017-09-10T01:34:16.819Z,4.30
2017-09-10T01:36:44.361Z,5.55
2017-09-10T01:39:11.983Z,4.28
2017-09-10T01:41:39.580Z,4.65
2017-09-10T01:44:07.870Z,9.05
2017-09-10T01:46:36.128Z,5.15
2017-09-10T01:49:03.601Z,5.18
2017-09-10T01:51:31.839Z,6.00
2017-09-10T01:53:59.487Z,4.57
2017-09-10T01:56:26.973Z,4.25
2017-09-10T01:58:54.456Z,5.90
2017-09-10T02:01:22.732Z,5.30
2017-09-10T02:03:50.230Z,4.72
2017-09-10T02:06:17.697Z,5.28
2017-09-10T02:08:45.401Z,5.28
2017-09-10T02:11:12.928Z,4.82
2017-09-10T02:13:40.528Z,5.35
2017-09-10T02:16:08.179Z,4.20
2017-09-10T02:18:36.432Z,4.15
2017-09-10T02:21:03.919Z,4.03
2017-09-10T02:23:31.626Z,4.28
2017-09-10T02:25:59.134Z,6.22
2017-09-10T02:28:26.604Z,4.32
2017-09-10T02:30:54.112Z,6.00
2017-09-10T02:33:21.638Z,4.45
2017-09-10T02:35:49.167Z,4.97
2017-09-10T02:38:16.650Z,4.82
2017-09-10T02:40:44.164Z,5.97
2017-09-10T02:43:11.696Z,4.53
2017-09-10T02:45:39.179Z,4.97
2017-09-10T02:48:06.658Z,5.28
2017-09-10T02:50:34.169Z,5.65
2017-09-10T02:53:01.677Z,5.10
2017-09-10T02:55:29.346Z,5.28
2017-09-10T02:57:57.282Z,4.95
2017-09-10T03:00:24.800Z,4.68
2017-09-10T03:02:52.301Z,5.07
2017-09-10T03:05:19.797Z,4.53
2017-09-10T03:07:47.397Z,6.35
2017-09-10T03:10:14.900Z,5.20
2017-09-10T03:12:42.388Z,4.45
2017-09-10T03:15:09.921Z,4.95
2017-09-10T03:17:37.448Z,6.00
2017-09-10T03:20:04.944Z,6.05
2017-09-10T03:22:32.432Z,6.10
2017-09-10T03:24:59.910Z,6.12
2017-09-10T03:27:27.500Z,4.68
2017-09-10T03:29:55.017Z,5.12
2017-09-10T03:32:22.492Z,5.62
2017-09-10T03:34:49.989Z,5.80
2017-09-10T03:37:17.476Z,5.22
2017-09-10T03:39:44.965Z,5.95
2017-09-10T03:42:12.452Z,5.15
2017-09-10T03:44:39.957Z,6.18
2017-09-10T03:47:07.457Z,6.20
2017-09-10T03:49:34.938Z,5.43
2017-09-10T03:52:02.425Z,7.00
2017-09-10T03:54:30.676Z,4.45
2017-09-10T03:56:58.156Z,5.53
2017-09-10T03:59:26.420Z,6.50
2017-09-10T04:01:54.025Z,5.80
2017-09-10T04:04:21.505Z,5.03
2017-09-10T04:06:49.155Z,7.20
2017-09-10T04:09:16.780Z,5.82
2017-09-10T04:11:44.440Z,6.65
2017-09-10T04:14:11.934Z,5.40
2017-09-10T04:16:39.447Z,5.90
2017-09-10T04:19:07.835Z,6.15
2017-09-10T04:21:35.335Z,5.47
2017-09-10T04:24:02.822Z,6.32
2017-09-10T04:26:30.422Z,6.85
2017-09-10T04:28:57.934Z,6.82
2017-09-10T04:31:25.433Z,5.75
2017-09-10T04:33:53.790Z,6.12
2017-09-10T04:36:21.273Z,5.82
2017-09-10T04:38:48.916Z,5.35
2017-09-10T04:41:16.405Z,5.53
2017-09-10T04:43:43.887Z,6.40
2017-09-10T04:46:11.504Z,5.82
2017-09-10T04:48:39.015Z,5.90
2017-09-10T04:51:06.534Z,5.37
2017-09-10T04:53:34.777Z,7.65
2017-09-10T04:56:02.276Z,6.53
2017-09-10T04:58:29.773Z,6.12
2017-09-10T05:00:57.274Z,5.30
2017-09-10T05:03:24.766Z,6.07
2017-09-10T05:05:52.268Z,5.93
2017-09-10T05:08:19.752Z,5.80
2017-09-10T05:10:48.002Z,8.98
2017-09-10T05:13:15.527Z,7.05
2017-09-10T05:15:43.015Z,7.43
2017-09-10T05:18:10.567Z,5.87
2017-09-10T05:20:38.041Z,5.93
2017-09-10T05:23:05.593Z,7.68
2017-09-10T05:25:33.112Z,6.20
2017-09-10T05:28:00.612Z,5.90
2017-09-10T05:30:28.203Z,6.87
2017-09-10T05:32:55.711Z,5.82
2017-09-10T05:35:23.204Z,7.12
2017-09-10T05:37:50.688Z,5.68
2017-09-10T05:40:18.944Z,6.45
2017-09-10T05:42:46.560Z,6.70
2017-09-10T05:45:14.070Z,5.90
2017-09-10T05:47:42.319Z,5.95
2017-09-10T05:50:09.819Z,6.28
2017-09-10T05:52:38.082Z,7.37
2017-09-10T05:55:05.646Z,7.20
2017-09-10T05:57:33.124Z,6.30
2017-09-10T06:00:00.607Z,7.07
2017-09-10T06:02:28.099Z,5.72
2017-09-10T06:04:55.569Z,7.97
2017-09-10T06:07:23.045Z,6.57
2017-09-10T06:09:51.304Z,6.82
2017-09-10T06:12:18.806Z,5.82
2017-09-10T06:14:46.286Z,6.10
2017-09-10T06:17:13.774Z,5.45
2017-09-10T06:19:41.271Z,5.70
2017-09-10T06:22:08.768Z,5.80
2017-09-10T06:24:36.270Z,6.05
2017-09-10T06:27:04.542Z,5.35
2017-09-10T06:29:32.813Z,3.90
2017-09-10T06:32:00.322Z,5.22
2017-09-10T06:34:27.854Z,5.20
2017-09-10T06:36:56.237Z,5.62
2017-09-10T06:39:24.498Z,5.70
2017-09-10T06:41:52.784Z,4.90
2017-09-10T06:44:21.082Z,3.92
2017-09-10T06:46:48.620Z,4.50
2017-09-10T06:49:16.284Z,4.50
2017-09-10T06:51:43.797Z,5.45
2017-09-10T06:54:11.287Z,5.00
2017-09-10T06:56:39.557Z,6.40
2017-09-10T06:59:07.062Z,4.97
2017-09-10T07:01:34.560Z,7.57
2017-09-10T07:04:02.074Z,5.82
2017-09-10T07:06:29.568Z,6.00
2017-09-10T07:08:57.093Z,5.43
2017-09-10T07:11:24.605Z,7.93
2017-09-10T07:13:52.097Z,7.20
2017-09-10T07:16:19.588Z,11.07
2017-09-10T07:18:47.115Z,11.00
2017-09-10T07:21:14.628Z,12.93
2017-09-10T07:23:42.119Z,14.07
2017-09-10T07:26:09.621Z,13.62
2017-09-10T07:28:37.145Z,16.58
2017-09-10T07:31:05.402Z,22.85
2017-09-10T07:33:32.902Z,19.35
2017-09-10T07:36:00.414Z,20.20
2017-09-10T07:38:27.911Z,19.73
2017-09-10T07:41:00.143Z,18.10
2017-09-10T07:43:27.652Z,14.57
2017-09-10T07:45:55.154Z,15.43
2017-09-10T07:48:22.657Z,12.20
2017-09-10T07:50:50.144Z,10.45
2017-09-10T07:53:17.713Z,7.47
2017-09-10T07:55:45.234Z,7.20
2017-09-10T07:58:12.914Z,6.78
2017-09-10T08:00:41.286Z,6.43
2017-09-10T08:03:08.994Z,7.80
2017-09-10T08:05:36.489Z,6.47
2017-09-10T08:08:04.027Z,4.68
2017-09-10T08:10:31.523Z,4.80
2017-09-10T08:12:59.057Z,5.22
2017-09-10T08:15:26.561Z,5.35
2017-09-10T08:17:54.058Z,6.07
2017-09-10T08:20:21.556Z,4.80
2017-09-10T08:22:49.820Z,5.50
2017-09-10T08:25:18.087Z,5.10
2017-09-10T08:27:46.361Z,7.07
2017-09-10T08:30:14.599Z,4.50
2017-09-10T08:32:42.101Z,5.22
2017-09-10T08:35:10.367Z,4.40
2017-09-10T08:37:37.885Z,4.12
2017-09-10T08:40:05.365Z,4.12
2017-09-10T08:42:32.858Z,5.55
2017-09-10T08:45:00.367Z,4.70
2017-09-10T08:47:27.861Z,4.25
2017-09-10T08:49:55.352Z,3.72
2017-09-10T08:52:22.860Z,4.20
2017-09-10T08:54:51.172Z,5.28
2017-09-10T08:57:18.704Z,4.65
2017-09-10T08:59:46.205Z,3.83
2017-09-10T09:02:13.755Z,2.30
2017-09-10T09:04:42.561Z,3.78
2017-09-10T09:07:10.307Z,3.00
2017-09-10T09:09:38.506Z,4.10
2017-09-10T09:12:06.052Z,3.65
2017-09-10T09:14:34.818Z,6.20
2017-09-10T09:17:02.308Z,3.75
2017-09-10T09:19:29.792Z,3.45
2017-09-10T09:21:57.458Z,4.70
2017-09-10T09:24:25.028Z,3.47
2017-09-10T09:26:52.538Z,3.80
2017-09-10T09:29:20.118Z,2.90
2017-09-10T09:31:47.629Z,2.67
2017-09-10T09:34:15.970Z,4.22
2017-09-10T09:36:44.204Z,3.75
2017-09-10T09:39:12.481Z,3.22
2017-09-10T09:41:40.756Z,3.28
2017-09-10T09:44:08.387Z,3.92
2017-09-10T09:46:35.928Z,3.30
2017-09-10T09:49:03.439Z,4.12
2017-09-10T09:51:31.045Z,4.10
2017-09-10T09:53:58.537Z,4.40
2017-09-10T09:56:26.043Z,3.12
2017-09-10T09:58:53.558Z,3.17
2017-09-10T10:01:21.836Z,2.80
2017-09-10T10:03:49.329Z,3.58
2017-09-10T10:06:16.821Z,4.00
2017-09-10T10:08:44.321Z,3.40
2017-09-10T10:11:11.828Z,2.92
2017-09-10T10:13:39.414Z,4.75
2017-09-10T10:16:06.910Z,4.15
2017-09-10T10:18:34.426Z,3.03
2017-09-10T10:21:01.957Z,3.37
2017-09-10T10:23:29.550Z,3.97
2017-09-10T10:25:57.036Z,2.85
2017-09-10T10:28:25.297Z,3.08
2017-09-10T10:30:52.951Z,2.92
2017-09-10T10:33:20.570Z,2.78
2017-09-10T10:35:48.221Z,3.47
2017-09-10T10:38:15.750Z,3.05
2017-09-10T10:40:43.246Z,2.42
2017-09-10T10:43:10.773Z,2.70
2017-09-10T10:45:38.680Z,2.70
2017-09-10T10:48:06.207Z,2.17
2017-09-10T10:50:34.476Z,2.67
2017-09-10T10:53:02.819Z,1.90
2017-09-10T10:55:30.364Z,2.40
2017-09-10T10:57:58.027Z,2.10
2017-09-10T11:00:25.565Z,3.33
2017-09-10T11:02:53.126Z,2.25
2017-09-10T11:05:20.978Z,2.40
2017-09-10T11:07:48.497Z,1.70
2017-09-10T11:10:16.082Z,2.62
2017-09-10T11:12:43.714Z,1.87
2017-09-10T11:15:11.210Z,4.28
2017-09-10T11:17:38.716Z,2.05
2017-09-10T11:20:06.275Z,2.50
2017-09-10T11:22:33.786Z,3.25
2017-09-10T11:25:01.430Z,1.87
2017-09-10T11:27:28.928Z,1.67
2017-09-10T11:29:56.475Z,2.08
2017-09-10T11:32:24.767Z,2.10
2017-09-10T11:34:52.272Z,3.47
2017-09-10T11:37:19.963Z,2.28
2017-09-10T11:39:47.626Z,1.83
2017-09-10T11:42:15.137Z,2.72
2017-09-10T11:44:42.660Z,2.47
2017-09-10T11:47:10.239Z,2.60
2017-09-10T11:49:37.873Z,1.95
2017-09-10T11:52:05.421Z,1.90
2017-09-10T11:54:33.847Z,1.60
2017-09-10T11:57:01.389Z,1.95
2017-09-10T11:59:29.155Z,2.03
2017-09-10T12:01:56.816Z,2.10
2017-09-10T12:04:24.306Z,2.65
2017-09-10T12:06:51.812Z,2.20
2017-09-10T12:09:20.079Z,1.85
2017-09-10T12:11:48.401Z,2.40
2017-09-10T12:14:16.060Z,1.77
2017-09-10T12:16:43.556Z,2.10
2017-09-10T12:19:11.052Z,2.75
2017-09-10T12:21:38.574Z,2.60
2017-09-10T12:24:06.104Z,2.47
2017-09-10T12:26:33.601Z,3.97
2017-09-10T12:29:01.098Z,3.50
2017-09-10T12:31:28.690Z,2.90
2017-09-10T12:33:56.425Z,2.97
2017-09-10T12:36:24.007Z,3.60
2017-09-10T12:38:51.546Z,3.22
2017-09-10T12:41:19.055Z,3.05
2017-09-10T12:43:46.639Z,24.45
2017-09-10T12:46:14.158Z,3.55
2017-09-10T12:48:41.639Z,3.00
2017-09-10T12:51:10.352Z,2.97
2017-09-10T12:53:38.620Z,2.85
2017-09-10T12:56:06.205Z,2.33
2017-09-10T12:58:33.748Z,2.17
2017-09-10T13:01:02.000Z,2.58
2017-09-10T13:03:29.476Z,2.12
2017-09-10T13:05:56.982Z,2.25
2017-09-10T13:08:24.482Z,2.55
2017-09-10T13:10:51.963Z,3.05
2017-09-10T13:13:19.494Z,2.78
2017-09-10T13:15:46.977Z,3.28
2017-09-10T13:18:15.241Z,1.70
2017-09-10T13:20:42.758Z,3.67
2017-09-10T13:23:10.306Z,2.30
2017-09-10T13:25:37.808Z,2.80
2017-09-10T13:28:05.322Z,1.70
2017-09-10T13:30:33.096Z,5.55
2017-09-10T13:33:00.611Z,2.55
2017-09-10T13:35:28.184Z,9.57
2017-09-10T13:37:55.741Z,2.15
2017-09-10T13:40:24.000Z,2.58
2017-09-10T13:42:51.522Z,2.60
2017-09-10T13:45:19.038Z,3.72
2017-09-10T13:47:46.518Z,3.00
2017-09-10T13:50:14.018Z,2.40
2017-09-10T13:52:41.566Z,2.92
2017-09-10T13:55:09.081Z,2.95
2017-09-10T13:57:36.582Z,3.30
2017-09-10T14:00:04.221Z,2.70
2017-09-10T14:02:31.745Z,3.15
2017-09-10T14:04:59.266Z,2.90
2017-09-10T14:07:26.752Z,3.37
2017-09-10T14:09:54.473Z,2.17
2017-09-10T14:12:21.985Z,2.60
2017-09-10T14:14:50.255Z,1.70
2017-09-10T14:17:17.756Z,1.92
2017-09-10T14:19:45.325Z,2.10
2017-09-10T14:22:13.795Z,2.17
2017-09-10T14:24:41.362Z,1.95
2017-09-10T14:27:08.910Z,1.77
2017-09-10T14:29:36.430Z,2.00
2017-09-10T14:32:04.050Z,2.42
2017-09-10T14:34:31.660Z,1.65
2017-09-10T14:36:59.192Z,1.95
2017-09-10T14:39:26.694Z,2.35
2017-09-10T14:41:54.988Z,4.00
2017-09-10T14:44:22.477Z,1.73
2017-09-10T14:46:49.973Z,2.70
2017-09-10T14:49:17.464Z,2.60
2017-09-10T14:51:45.161Z,2.40
2017-09-10T14:54:12.673Z,1.73
2017-09-10T14:56:41.093Z,3.05
2017-09-10T14:59:08.701Z,2.28
2017-09-10T15:01:36.242Z,1.95
2017-09-10T15:04:03.734Z,1.77
2017-09-10T15:06:32.000Z,2.58
2017-09-10T15:09:00.296Z,2.50
2017-09-10T15:11:27.883Z,2.58
2017-09-10T15:13:55.445Z,2.15
2017-09-10T15:16:22.962Z,1.92
2017-09-10T15:18:50.456Z,4.10
2017-09-10T15:21:17.972Z,2.10
2017-09-10T15:23:45.470Z,1.70
2017-09-10T15:26:12.995Z,2.90
2017-09-10T15:28:40.495Z,2.08
2017-09-10T15:31:08.038Z,1.75
2017-09-10T15:33:35.615Z,3.37
2017-09-10T15:36:03.126Z,1.75
2017-09-10T15:38:30.713Z,2.70
2017-09-10T15:40:58.216Z,5.85
2017-09-10T15:43:25.711Z,2.25
2017-09-10T15:45:54.017Z,2.58
2017-09-10T15:48:21.532Z,1.67
2017-09-10T15:50:49.031Z,5.43
2017-09-10T15:53:16.549Z,2.78
2017-09-10T15:55:44.041Z,1.87
2017-09-10T15:58:12.320Z,1.80
2017-09-10T16:00:40.897Z,3.15
2017-09-10T16:03:08.443Z,2.33
2017-09-10T16:05:36.705Z,2.15
2017-09-10T16:08:04.187Z,1.80
2017-09-10T16:10:32.569Z,2.95
2017-09-10T16:13:01.049Z,2.00
2017-09-10T16:15:28.725Z,2.65
2017-09-10T16:17:56.416Z,3.60
2017-09-10T16:20:24.037Z,2.00
2017-09-10T16:22:51.565Z,1.77
2017-09-10T16:25:19.079Z,2.37
2017-09-10T16:27:46.810Z,3.08
2017-09-10T16:30:14.354Z,2.28
2017-09-10T16:32:41.890Z,2.45
2017-09-10T16:35:09.398Z,2.33
2017-09-10T16:37:36.967Z,7.32
2017-09-10T16:40:05.230Z,2.60
2017-09-10T16:42:33.496Z,2.45
2017-09-10T16:45:01.000Z,2.35
2017-09-10T16:47:28.514Z,2.42
2017-09-10T16:49:56.021Z,1.92
2017-09-10T16:52:23.548Z,1.77
2017-09-10T16:54:51.119Z,4.45
2017-09-10T16:57:18.656Z,2.25
2017-09-10T16:59:46.165Z,2.33
2017-09-10T17:02:13.767Z,2.72
2017-09-10T17:04:41.299Z,4.85
2017-09-10T17:07:08.801Z,2.40
2017-09-10T17:09:37.301Z,2.05
2017-09-10T17:12:04.850Z,2.50
2017-09-10T17:14:33.176Z,3.75
2017-09-10T17:17:00.681Z,4.32
2017-09-10T17:19:28.182Z,5.37
2017-09-10T17:21:55.697Z,3.90
2017-09-10T17:24:23.962Z,6.28
2017-09-10T17:26:51.481Z,2.80
2017-09-10T17:29:18.967Z,4.68
2017-09-10T17:31:46.670Z,3.40
2017-09-10T17:34:14.169Z,5.22
2017-09-10T17:36:41.798Z,4.50
2017-09-10T17:39:09.453Z,3.50
2017-09-10T17:41:37.712Z,4.15
2017-09-10T17:44:05.321Z,5.45
2017-09-10T17:46:32.950Z,6.30
2017-09-10T17:49:01.255Z,3.47
2017-09-10T17:51:28.896Z,5.93
2017-09-10T17:53:56.401Z,4.10
2017-09-10T17:56:23.920Z,4.00
2017-09-10T17:58:51.477Z,3.62
2017-09-10T18:01:18.978Z,4.15
2017-09-10T18:03:46.541Z,6.60
2017-09-10T18:06:14.090Z,4.20
2017-09-10T18:08:41.718Z,3.92
2017-09-10T18:11:10.039Z,3.60
2017-09-10T18:13:37.685Z,8.45
2017-09-10T18:16:05.500Z,5.00
2017-09-10T18:18:33.822Z,4.00
2017-09-10T18:21:01.624Z,4.70
2017-09-10T18:23:29.177Z,4.37
2017-09-10T18:25:56.889Z,3.87
2017-09-10T18:28:24.399Z,4.35
2017-09-10T18:30:51.916Z,4.82
2017-09-10T18:33:19.476Z,4.65
2017-09-10T18:35:46.997Z,4.53
2017-09-10T18:38:14.511Z,5.20
2017-09-10T18:40:42.039Z,3.90
2017-09-10T18:43:09.539Z,4.90
2017-09-10T18:45:37.076Z,6.07
2017-09-10T18:48:04.658Z,4.87
2017-09-10T18:50:32.179Z,5.05
2017-09-10T18:52:59.758Z,6.18
2017-09-10T18:55:27.285Z,5.22
2017-09-10T18:57:54.805Z,5.12
2017-09-10T19:00:22.351Z,5.22
2017-09-10T19:02:49.913Z,4.30
2017-09-10T19:05:17.439Z,5.80
2017-09-10T19:07:44.941Z,4.90
2017-09-10T19:10:12.565Z,5.12
2017-09-10T19:12:40.051Z,4.60
2017-09-10T19:15:07.578Z,4.30
2017-09-10T19:17:35.875Z,7.32
2017-09-10T19:20:04.874Z,7.20
2017-09-10T19:22:32.422Z,4.90
2017-09-10T19:25:00.035Z,5.57
2017-09-10T19:27:27.527Z,5.45
2017-09-10T19:29:55.827Z,4.97
2017-09-10T19:32:23.324Z,4.53
2017-09-10T19:34:53.274Z,4.75
2017-09-10T19:37:20.809Z,4.75
2017-09-10T19:39:48.394Z,4.25
2017-09-10T19:42:16.947Z,3.20
2017-09-10T19:44:44.877Z,6.95
2017-09-10T19:47:12.568Z,5.55
2017-09-10T19:49:41.500Z,4.20
2017-09-10T19:52:09.178Z,4.12
2017-09-10T19:54:36.733Z,4.65
2017-09-10T19:57:04.983Z,4.50
2017-09-10T19:59:32.531Z,5.05
2017-09-10T20:02:06.937Z,4.78
2017-09-10T20:04:34.481Z,3.97
2017-09-10T20:07:02.074Z,6.60
2017-09-10T20:09:29.581Z,5.00
2017-09-10T20:11:57.091Z,4.78
2017-09-10T20:14:25.531Z,4.70
2017-09-10T20:16:53.216Z,5.15
2017-09-10T20:19:20.855Z,4.75
2017-09-10T20:21:48.406Z,4.32
2017-09-10T20:24:16.698Z,4.80
2017-09-10T20:26:44.214Z,4.35
2017-09-10T20:29:11.732Z,6.75
2017-09-10T20:31:39.250Z,5.00
2017-09-10T20:34:06.895Z,6.68
2017-09-10T20:36:34.416Z,7.18
2017-09-10T20:39:01.915Z,5.50
2017-09-10T20:41:29.424Z,5.15
2017-09-10T20:43:56.938Z,5.50
2017-09-10T20:46:24.449Z,4.87
2017-09-10T20:48:51.998Z,5.65
2017-09-10T20:51:19.496Z,4.37
2017-09-10T20:53:47.001Z,4.85
2017-09-10T20:56:14.602Z,6.00
2017-09-10T20:58:42.161Z,5.53
2017-09-10T21:01:10.424Z,5.93
2017-09-10T21:03:38.713Z,5.22
2017-09-10T21:06:06.979Z,5.80
2017-09-10T21:08:34.493Z,5.57
2017-09-10T21:11:02.089Z,5.68
2017-09-10T21:13:30.474Z,6.28
2017-09-10T21:15:57.973Z,5.32
2017-09-10T21:18:25.477Z,5.25
2017-09-10T21:20:53.106Z,5.72
2017-09-10T21:23:20.619Z,4.32
2017-09-10T21:25:48.887Z,4.90
2017-09-10T21:28:17.149Z,7.15
2017-09-10T21:30:44.639Z,5.18
2017-09-10T21:33:12.140Z,5.15
2017-09-10T21:35:40.066Z,7.80
2017-09-10T21:38:07.670Z,11.93
2017-09-10T21:40:35.205Z,6.55
2017-09-10T21:43:02.719Z,4.62
2017-09-10T21:45:30.197Z,5.87
2017-09-10T21:47:58.460Z,6.25
2017-09-10T21:50:25.968Z,5.50
2017-09-10T21:52:53.455Z,5.70
2017-09-10T21:55:21.525Z,6.05
2017-09-10T21:57:50.007Z,5.87
2017-09-10T22:00:18.443Z,4.90
2017-09-10T22:02:45.926Z,5.68
2017-09-10T22:05:13.410Z,6.22
2017-09-10T22:07:40.939Z,6.32
2017-09-10T22:10:08.436Z,4.60
2017-09-10T22:12:35.936Z,26.90
2017-09-10T22:15:03.454Z,14.52
2017-09-10T22:17:30.973Z,6.20
2017-09-10T22:19:58.482Z,6.37
2017-09-10T22:22:26.762Z,4.45
2017-09-10T22:24:55.036Z,5.65
2017-09-10T22:27:23.303Z,4.30
2017-09-10T22:29:50.779Z,5.37
2017-09-10T22:32:19.051Z,5.20
2017-09-10T22:34:46.549Z,4.90
2017-09-10T22:37:14.069Z,4.35
2017-09-10T22:39:41.549Z,6.75
2017-09-10T22:42:09.047Z,4.35
2017-09-10T22:44:36.666Z,4.75
2017-09-10T22:47:04.159Z,5.70
2017-09-10T22:49:31.663Z,5.15
2017-09-10T22:51:59.921Z,4.22
2017-09-10T22:54:27.420Z,5.37
2017-09-10T22:56:55.706Z,4.32
2017-09-10T22:59:23.200Z,4.53
2017-09-10T23:01:50.677Z,5.50
2017-09-10T23:04:18.160Z,5.25
2017-09-10T23:06:45.648Z,4.47
2017-09-10T23:09:13.168Z,5.22
2017-09-10T23:11:41.429Z,5.40
2017-09-10T23:14:08.955Z,5.20
2017-09-10T23:16:36.445Z,5.40
2017-09-10T23:19:04.054Z,4.78
2017-09-10T23:21:31.556Z,5.55
2017-09-10T23:23:59.052Z,5.85
2017-09-10T23:26:26.540Z,5.25
2017-09-10T23:28:54.059Z,5.60
2017-09-10T23:31:22.335Z,5.10
2017-09-10T23:33:50.624Z,6.70
2017-09-10T23:36:18.117Z,6.57
2017-09-10T23:38:45.612Z,5.82
2017-09-10T23:41:13.107Z,5.40
2017-09-10T23:43:40.592Z,6.18
2017-09-10T23:46:08.118Z,6.82
2017-09-10T23:48:35.643Z,6.80
2017-09-10T23:51:03.168Z,7.50
2017-09-10T23:53:30.992Z,6.25
2017-09-10T23:55:58.491Z,5.10
2017-09-10T23:58:26.009Z,5.50
